Time;durP1;ratioP1;P1;durP2;ratioP2;P2;SDS_P1;SDS_P2;PMS_P1;PMS_P2;Temp;Humidity;BMP_temperature;BMP_pressure;BME280_temperature;BME280_humidity;BME280_pressure;Samples;Min_cycle;Max_cycle;Signal;HPM_P1;HPM_P2
2021/12/15 00:01:52;;;;;;;39.18;22.82;;;;;;;8.42;88.91;101367.67;2864618;83;21030;-67
2021/12/15 00:05:54;;;;;;;33.67;19.80;;;;;;;8.45;88.78;101373.28;2865679;83;21054;-69
2021/12/15 00:09:56;;;;;;;32.73;21.27;;;;;;;8.41;88.75;101376.56;2865108;82;21051;-69
2021/12/15 00:13:59;;;;;;;30.70;22.82;;;;;;;8.44;88.88;101374.22;2865053;82;21003;-68
2021/12/15 00:18:01;;;;;;;37.33;25.02;;;;;;;8.46;88.97;101378.12;2865027;83;21035;-69
2021/12/15 00:22:04;;;;;;;28.67;22.37;;;;;;;8.40;89.18;101372.20;2865157;83;21023;-67
2021/12/15 00:26:06;;;;;;;31.12;22.67;;;;;;;8.38;89.41;101366.13;2864686;82;21070;-69
2021/12/15 00:30:10;;;;;;;30.97;19.82;;;;;;;8.32;89.72;101377.09;2866320;82;20983;-69
2021/12/15 00:34:11;;;;;;;34.85;21.20;;;;;;;8.36;89.86;101364.04;2884026;82;20950;-69
2021/12/15 00:38:13;;;;;;;32.75;21.48;;;;;;;8.33;90.27;101367.32;2884020;82;21042;-68
2021/12/15 00:42:15;;;;;;;33.65;19.80;;;;;;;8.29;90.59;101373.28;2884121;82;20971;-67
2021/12/15 00:46:18;;;;;;;38.65;23.50;;;;;;;8.32;90.76;101377.54;2884740;82;20967;-66
2021/12/15 00:50:23;;;;;;;43.20;25.88;;;;;;;8.32;90.92;101381.06;2883950;82;21137;-70
2021/12/15 00:54:25;;;;;;;34.10;21.37;;;;;;;8.34;90.97;101385.80;2883980;82;21017;-68
2021/12/15 00:58:26;;;;;;;27.90;19.90;;;;;;;8.39;90.99;101386.41;2885362;82;21042;-68
2021/12/15 01:02:29;;;;;;;37.42;22.45;;;;;;;8.46;91.14;101394.88;2870050;82;21044;-71
2021/12/15 01:06:31;;;;;;;32.13;22.30;;;;;;;8.51;90.90;101387.55;2838768;84;21090;-69
2021/12/15 01:23:33;;;;;;;29.52;20.88;;;;;;;8.64;90.69;101396.16;2839240;84;20989;-67
2021/12/15 01:27:35;;;;;;;37.85;21.55;;;;;;;8.65;90.76;101396.09;2839233;84;21051;-70
2021/12/15 01:31:37;;;;;;;32.40;23.90;;;;;;;8.63;90.95;101401.08;2839431;84;21028;-69
2021/12/15 01:35:44;;;;;;;34.00;23.45;;;;;;;8.62;91.33;101402.86;2839395;84;21031;-69
2021/12/15 01:39:46;;;;;;;27.67;20.55;;;;;;;8.59;91.64;101405.69;2839095;84;21043;-68
2021/12/15 01:48:11;;;;;;;31.68;20.77;;;;;;;8.62;91.66;101399.37;2791779;85;20978;-70
2021/12/15 01:52:24;;;;;;;35.92;22.45;;;;;;;8.63;91.62;101407.22;2788989;85;21055;-67
2021/12/15 01:56:26;;;;;;;31.52;22.85;;;;;;;8.62;91.84;101417.45;2838724;84;21032;-66
2021/12/15 02:00:33;;;;;;;34.38;22.87;;;;;;;8.62;92.03;101421.91;2840032;82;20984;-68
2021/12/15 02:04:35;;;;;;;36.70;24.20;;;;;;;8.60;92.48;101409.21;2827734;83;21095;-68
2021/12/15 02:08:38;;;;;;;27.75;20.60;;;;;;;8.63;92.43;101415.18;2885876;82;20982;-70
2021/12/15 02:12:43;;;;;;;31.00;20.70;;;;;;;8.65;92.50;101410.67;2886170;82;21022;-70
2021/12/15 02:16:45;;;;;;;36.40;23.22;;;;;;;8.65;92.59;101401.84;2886164;82;21010;-69
2021/12/15 02:20:51;;;;;;;31.52;22.67;;;;;;;8.63;92.80;101406.38;2885306;82;21046;-71
2021/12/15 02:24:54;;;;;;;32.95;21.50;;;;;;;8.60;93.09;101411.86;2885100;82;21411;-69
2021/12/15 02:28:59;;;;;;;34.80;22.60;;;;;;;8.62;92.94;101413.47;2885455;82;21065;-70
2021/12/15 02:33:25;;;;;;;35.33;23.07;;;;;;;8.64;93.01;101416.89;2885344;82;21460;-71
2021/12/15 02:37:18;;;;;;;35.03;23.27;;;;;;;8.65;93.01;101413.33;2881779;82;21062;-69
2021/12/15 02:41:21;;;;;;;33.67;22.15;;;;;;;8.66;93.12;101417.69;2878592;82;20994;-69
2021/12/15 02:45:28;;;;;;;29.90;20.60;;;;;;;8.68;93.11;101421.56;2864903;83;20987;-67
2021/12/15 02:49:29;;;;;;;35.03;23.55;;;;;;;8.70;93.05;101428.50;2863915;83;21035;-67
2021/12/15 02:53:31;;;;;;;34.03;21.62;;;;;;;8.73;92.94;101430.60;2883482;82;21062;-69
2021/12/15 02:57:33;;;;;;;35.13;24.00;;;;;;;8.75;93.01;101439.33;2884729;82;20979;-69
2021/12/15 03:06:10;;;;;;;38.05;24.20;;;;;;;8.83;92.76;101430.45;2884829;82;21335;-68
2021/12/15 03:18:51;;;;;;;37.85;24.70;;;;;;;8.73;92.85;101430.60;2886110;82;20994;-68
2021/12/15 03:22:53;;;;;;;39.13;24.95;;;;;;;8.65;93.22;101427.05;2885527;82;21014;-70
2021/12/15 03:27:11;;;;;;;36.38;23.57;;;;;;;8.61;93.50;101429.00;2885329;82;21037;-69
2021/12/15 03:39:47;;;;;;;36.48;23.98;;;;;;;8.51;94.13;101439.75;2884587;82;21058;-68
2021/12/15 03:43:49;;;;;;;36.93;21.82;;;;;;;8.51;94.25;101449.03;2884372;82;21002;-69
2021/12/15 03:47:53;;;;;;;40.95;23.35;;;;;;;8.53;94.19;101444.49;2884311;82;21026;-67
2021/12/15 03:51:55;;;;;;;40.60;24.95;;;;;;;8.57;94.18;101447.36;2884071;82;20999;-71
2021/12/15 03:55:58;;;;;;;43.83;26.45;;;;;;;8.64;94.15;101447.88;2883854;82;21046;-69
2021/12/15 04:00:00;;;;;;;34.03;22.82;;;;;;;8.65;94.06;101439.85;2884781;82;21423;-69
2021/12/15 04:04:03;;;;;;;41.48;26.30;;;;;;;8.62;94.03;101439.16;2884095;82;20998;-69
2021/12/15 04:08:05;;;;;;;37.03;24.65;;;;;;;8.64;93.96;101451.86;2884580;82;21010;-69
2021/12/15 04:12:09;;;;;;;32.75;23.07;;;;;;;8.63;94.06;101453.64;2884057;82;20954;-68
2021/12/15 04:16:25;;;;;;;36.40;24.57;;;;;;;8.64;94.10;101455.34;2884289;82;21065;-70
2021/12/15 04:20:18;;;;;;;37.73;23.90;;;;;;;8.68;94.08;101458.24;2880627;82;21022;-75
2021/12/15 04:24:23;;;;;;;42.53;27.05;;;;;;;8.71;94.14;101458.53;2883313;82;21014;-75
2021/12/15 04:28:32;;;;;;;37.60;26.75;;;;;;;8.62;94.25;101454.58;2882779;82;20986;-77
2021/12/15 04:32:39;;;;;;;40.03;22.35;;;;;;;8.54;94.69;101460.79;2882804;82;21018;-73
2021/12/15 04:36:47;;;;;;;42.30;23.95;;;;;;;8.51;95.00;101457.83;2881631;82;20955;-77
2021/12/15 04:40:49;;;;;;;41.75;25.68;;;;;;;8.48;95.30;101465.08;2882809;82;21042;-75
2021/12/15 04:44:55;;;;;;;39.58;24.00;;;;;;;8.42;95.74;101473.73;2865118;82;21073;-74
2021/12/15 04:48:55;;;;;;;38.17;23.85;;;;;;;8.38;96.04;101478.81;2882248;82;21022;-77
2021/12/15 04:53:00;;;;;;;39.90;26.70;;;;;;;8.34;96.33;101480.38;2882643;82;21070;-75
2021/12/15 04:57:02;;;;;;;40.10;26.95;;;;;;;8.30;96.71;101485.01;2882168;82;21003;-74
2021/12/15 05:01:08;;;;;;;36.90;24.10;;;;;;;8.35;96.58;101481.63;2882953;82;21041;-76
2021/12/15 05:05:10;;;;;;;35.85;25.05;;;;;;;8.43;96.46;101486.05;2887738;82;21115;-71
2021/12/15 05:09:14;;;;;;;38.42;24.55;;;;;;;8.49;96.04;101486.68;2889028;82;20975;-72
2021/12/15 05:13:16;;;;;;;33.10;24.55;;;;;;;8.58;95.96;101482.22;2888978;82;21077;-71
2021/12/15 05:17:18;;;;;;;34.10;21.07;;;;;;;8.64;95.46;101488.99;2882323;82;21034;-69
2021/12/15 05:21:22;;;;;;;46.33;22.17;;;;;;;8.64;94.96;101496.46;2877951;82;21002;-74
2021/12/15 05:25:23;;;;;;;42.38;26.15;;;;;;;8.46;95.54;101500.11;2886784;82;21006;-72
2021/12/15 05:29:25;;;;;;;37.63;24.72;;;;;;;8.21;97.29;101506.23;2890602;82;20975;-71
2021/12/15 05:33:27;;;;;;;33.83;21.52;;;;;;;8.24;97.23;101510.50;2890230;82;21614;-75
2021/12/15 05:37:30;;;;;;;38.02;22.13;;;;;;;8.23;97.70;101503.48;2889613;82;21040;-71
2021/12/15 05:41:33;;;;;;;31.33;22.50;;;;;;;8.25;97.92;101510.88;2889389;82;21017;-73
2021/12/15 05:45:38;;;;;;;38.63;23.45;;;;;;;8.31;97.67;101517.20;2889176;82;20978;-73
2021/12/15 05:49:40;;;;;;;38.55;22.60;;;;;;;8.38;97.19;101515.94;2890827;82;20987;-74
2021/12/15 05:53:43;;;;;;;33.80;23.90;;;;;;;8.46;96.35;101526.14;2890866;82;21014;-75
2021/12/15 05:57:46;;;;;;;36.00;21.73;;;;;;;8.45;95.83;101525.75;2890612;82;21022;-71
2021/12/15 06:01:49;;;;;;;34.85;22.77;;;;;;;8.50;95.74;101536.16;2891192;82;21515;-74
2021/12/15 06:05:51;;;;;;;36.10;23.25;;;;;;;8.55;95.64;101539.41;2890356;82;21065;-73
2021/12/15 06:09:53;;;;;;;37.93;22.52;;;;;;;8.60;94.93;101540.50;2890906;82;21014;-74
2021/12/15 06:13:55;;;;;;;32.95;20.62;;;;;;;8.58;95.10;101535.27;2891098;82;20990;-72
2021/12/15 06:18:02;;;;;;;35.00;18.67;;;;;;;8.62;94.95;101536.80;2890881;82;20991;-74
2021/12/15 06:22:06;;;;;;;25.70;17.57;;;;;;;8.55;94.94;101548.70;2889945;82;21010;-71
2021/12/15 06:26:09;;;;;;;31.33;17.75;;;;;;;8.47;95.50;101552.20;2890738;82;21002;-74
2021/12/15 06:30:11;;;;;;;26.05;16.87;;;;;;;8.40;96.11;101559.62;2891008;82;20986;-75
2021/12/15 06:34:15;;;;;;;20.15;14.85;;;;;;;8.40;96.32;101559.13;2891076;82;21006;-74
2021/12/15 06:38:17;;;;;;;20.30;15.25;;;;;;;8.37;96.80;101562.44;2891173;82;21026;-74
2021/12/15 06:42:19;;;;;;;14.18;12.75;;;;;;;8.33;97.42;101568.36;2890694;82;21025;-70
2021/12/15 06:59:23;;;;;;;20.02;13.38;;;;;;;8.22;98.58;101566.72;2890443;82;21025;-76
2021/12/15 07:03:26;;;;;;;16.87;12.47;;;;;;;8.18;99.45;101571.80;2886962;82;21047;-75
2021/12/15 07:07:27;;;;;;;19.23;12.55;;;;;;;8.20;99.43;101568.59;2873228;82;21098;-72
2021/12/15 07:11:30;;;;;;;16.67;11.40;;;;;;;8.23;99.53;101579.03;2872738;83;21389;-71
2021/12/15 07:15:34;;;;;;;14.18;10.88;;;;;;;8.26;99.87;101584.20;2873134;82;21111;-74
2021/12/15 07:20:03;;;;;;;18.02;10.13;;;;;;;8.28;100.00;101581.00;2872851;82;21046;-70
2021/12/15 07:23:40;;;;;;;15.40;11.33;;;;;;;8.32;100.00;101582.55;2869214;83;21010;-73
2021/12/15 07:27:42;;;;;;;12.60;10.85;;;;;;;8.33;99.84;101578.96;2872764;83;20970;-74
2021/12/15 07:31:44;;;;;;;16.10;10.20;;;;;;;8.38;99.83;101578.73;2873033;82;21050;-74
2021/12/15 07:35:46;;;;;;;15.55;12.50;;;;;;;8.38;99.75;101575.59;2872705;82;21046;-70
2021/12/15 07:39:57;;;;;;;17.98;13.13;;;;;;;8.40;99.41;101575.53;2873093;82;21038;-71
2021/12/15 07:43:54;;;;;;;17.10;13.65;;;;;;;8.41;98.69;101580.73;2871733;82;20979;-73
2021/12/15 07:47:59;;;;;;;20.70;15.03;;;;;;;8.34;98.68;101575.38;2873148;82;21021;-75
2021/12/15 07:52:04;;;;;;;19.60;13.00;;;;;;;8.36;98.86;101571.33;2873629;82;21041;-73
2021/12/15 07:56:05;;;;;;;13.55;10.68;;;;;;;8.34;98.88;101574.05;2873865;82;21006;-73
2021/12/15 08:00:11;;;;;;;15.13;11.20;;;;;;;8.37;98.87;101572.55;2873210;82;21089;-74
2021/12/15 08:04:13;;;;;;;13.72;11.18;;;;;;;8.41;99.18;101579.41;2873152;82;21034;-73
2021/12/15 08:08:15;;;;;;;14.33;9.68;;;;;;;8.41;99.40;101577.23;2873551;82;21073;-71
2021/12/15 08:12:18;;;;;;;14.20;10.93;;;;;;;8.49;99.21;101572.86;2873700;82;21030;-74
2021/12/15 08:16:19;;;;;;;11.85;8.48;;;;;;;8.53;98.80;101573.12;2873289;83;21054;-68
2021/12/15 08:20:26;;;;;;;13.93;8.95;;;;;;;8.49;98.75;101575.52;2873732;83;21021;-73
2021/12/15 08:24:28;;;;;;;12.20;9.23;;;;;;;8.52;98.64;101580.69;2873802;82;21042;-74
2021/12/15 08:28:30;;;;;;;15.90;9.93;;;;;;;8.59;98.33;101582.06;2873843;83;21034;-70
2021/12/15 08:32:31;;;;;;;13.13;9.80;;;;;;;8.59;97.91;101577.25;2873832;82;21007;-71
2021/12/15 08:36:34;;;;;;;12.37;8.50;;;;;;;8.60;98.04;101577.63;2874055;83;21049;-71
2021/12/15 08:40:37;;;;;;;20.20;9.98;;;;;;;8.64;98.85;101577.37;2873935;82;21018;-72
2021/12/15 08:44:39;;;;;;;12.35;9.00;;;;;;;8.71;99.18;101575.25;2874137;82;21027;-71
2021/12/15 08:48:43;;;;;;;12.75;9.40;;;;;;;8.75;99.22;101572.84;2873953;83;21029;-73
2021/12/15 08:52:45;;;;;;;10.23;8.45;;;;;;;8.83;99.03;101579.03;2873403;82;20994;-69
2021/12/15 08:56:48;;;;;;;10.85;9.00;;;;;;;8.88;99.18;101588.95;2873950;82;21034;-71
2021/12/15 09:00:53;;;;;;;15.08;9.63;;;;;;;8.98;99.16;101596.79;2873756;82;21045;-72
2021/12/15 09:04:55;;;;;;;10.90;9.40;;;;;;;9.03;98.43;101594.34;2873760;82;21022;-71
2021/12/15 09:08:57;;;;;;;11.63;8.80;;;;;;;9.07;98.24;101597.25;2874738;83;20975;-72
2021/12/15 09:13:00;;;;;;;13.08;9.78;;;;;;;9.14;97.84;101596.83;2874380;83;20991;-71
2021/12/15 09:17:05;;;;;;;9.48;5.78;;;;;;;9.18;97.66;101582.89;2874121;82;21460;-70
2021/12/15 09:21:09;;;;;;;9.40;7.50;;;;;;;9.27;97.53;101586.39;2874494;83;21059;-72
2021/12/15 09:25:13;;;;;;;12.45;8.13;;;;;;;9.32;96.60;101585.27;2874197;82;21022;-71
2021/12/15 09:29:15;;;;;;;10.10;8.13;;;;;;;9.41;96.77;101585.61;2873982;82;21015;-71
2021/12/15 09:33:21;;;;;;;12.18;7.67;;;;;;;9.57;96.51;101580.77;2873837;83;21003;-71
2021/12/15 09:37:23;;;;;;;10.58;9.18;;;;;;;9.67;95.90;101567.80;2874046;83;21047;-73
2021/12/15 09:41:26;;;;;;;10.13;8.15;;;;;;;9.81;95.87;101567.84;2874117;82;20991;-72
2021/12/15 09:45:40;;;;;;;10.95;8.58;;;;;;;9.85;94.80;101565.87;2874175;82;21054;-71
2021/12/15 10:02:41;;;;;;;10.48;9.38;;;;;;;9.88;94.22;101570.16;2873861;83;21512;-72
2021/12/15 10:07:02;;;;;;;21.15;8.38;;;;;;;9.77;94.08;101572.95;2873215;82;21641;-72
2021/12/15 10:19:42;;;;;;;13.03;8.88;;;;;;;9.80;93.11;101563.95;2873863;83;21050;-71
2021/12/15 10:23:46;;;;;;;13.38;9.28;;;;;;;9.83;92.72;101561.99;2873702;82;21063;-70
2021/12/15 10:28:09;;;;;;;13.53;9.15;;;;;;;9.79;92.72;101556.44;2874451;83;20962;-71
2021/12/15 10:32:11;;;;;;;13.20;9.85;;;;;;;9.79;91.85;101549.80;2874550;83;21006;-70
2021/12/15 10:36:23;;;;;;;11.50;8.10;;;;;;;9.90;92.54;101549.17;2874070;83;21487;-72
2021/12/15 10:40:25;;;;;;;14.87;9.60;;;;;;;9.87;91.49;101545.37;2874109;83;21062;-71
2021/12/15 10:44:28;;;;;;;12.18;8.60;;;;;;;9.95;91.87;101546.25;2874493;83;21081;-72
2021/12/15 10:48:37;;;;;;;10.08;8.03;;;;;;;9.93;92.08;101545.03;2874775;83;21046;-71
2021/12/15 10:52:56;;;;;;;14.60;9.68;;;;;;;9.98;91.43;101541.62;2874021;82;21058;-73
2021/12/15 10:57:06;;;;;;;14.78;10.15;;;;;;;9.96;91.31;101541.31;2874424;83;20979;-71
2021/12/15 11:01:42;;;;;;;12.33;9.88;;;;;;;10.00;91.42;101541.51;2874654;82;21014;-70
2021/12/15 11:05:44;;;;;;;14.03;8.18;;;;;;;9.99;91.74;101545.98;2874764;82;21026;-71
2021/12/15 11:10:03;;;;;;;14.25;9.25;;;;;;;9.96;91.31;101537.33;2874910;82;21003;-70
2021/12/15 11:14:26;;;;;;;10.98;9.73;;;;;;;10.01;91.86;101541.89;2874546;83;20986;-69
2021/12/15 11:18:31;;;;;;;11.90;9.25;;;;;;;10.02;91.65;101547.59;2873732;82;20991;-72
2021/12/15 11:23:06;;;;;;;15.08;8.28;;;;;;;10.00;91.83;101542.37;2873671;82;21030;-72
2021/12/15 11:27:17;;;;;;;12.73;9.50;;;;;;;9.98;91.43;101553.58;2873614;81;21042;-72
2021/12/15 11:31:24;;;;;;;14.00;9.43;;;;;;;9.92;91.81;101541.13;2873152;83;21070;-71
2021/12/15 11:35:34;;;;;;;12.37;8.35;;;;;;;9.90;91.68;101537.70;2815577;84;20993;-71
2021/12/15 11:39:42;;;;;;;15.25;9.75;;;;;;;9.85;92.09;101534.84;2875078;83;21044;-71
2021/12/15 11:43:56;;;;;;;14.15;10.58;;;;;;;9.87;92.18;101529.42;2875031;83;20998;-72
2021/12/15 11:48:20;;;;;;;14.13;8.88;;;;;;;9.90;92.20;101527.91;2874556;83;20990;-73
2021/12/15 11:52:24;;;;;;;13.15;9.43;;;;;;;9.98;92.57;101531.44;2873620;83;23573;-71
2021/12/15 11:56:36;;;;;;;13.30;9.80;;;;;;;9.99;92.10;101524.72;2873985;83;21011;-70
2021/12/15 12:00:38;;;;;;;12.37;9.18;;;;;;;10.06;91.74;101529.66;2873686;83;21105;-71
2021/12/15 12:05:03;;;;;;;14.18;10.43;;;;;;;10.06;90.94;101523.88;2875175;82;21038;-71
2021/12/15 12:09:05;;;;;;;15.18;9.70;;;;;;;10.08;91.22;101522.44;2836566;84;21049;-71
2021/12/15 12:13:19;;;;;;;11.80;8.25;;;;;;;10.05;90.63;101523.96;2836370;84;21042;-72
2021/12/15 12:17:27;;;;;;;10.55;8.48;;;;;;;9.98;90.43;101527.45;2834805;84;20994;-71
2021/12/15 12:21:29;;;;;;;13.68;9.83;;;;;;;9.98;90.39;101528.78;2835991;84;21025;-71
2021/12/15 12:25:36;;;;;;;10.25;7.20;;;;;;;9.98;90.48;101534.10;2836164;84;21065;-71
2021/12/15 12:29:38;;;;;;;15.45;10.72;;;;;;;9.91;90.39;101528.29;2836380;84;21057;-70
2021/12/15 12:33:40;;;;;;;9.68;6.47;;;;;;;9.87;90.52;101536.06;2836431;84;21001;-74
2021/12/15 12:37:43;;;;;;;12.20;8.93;;;;;;;9.85;91.01;101533.52;2836672;84;21049;-70
2021/12/15 12:41:49;;;;;;;12.47;8.45;;;;;;;9.85;90.47;101529.53;2836460;84;21033;-71
2021/12/15 12:46:17;;;;;;;9.58;7.75;;;;;;;9.79;90.39;101539.17;2837738;84;20953;-69
2021/12/15 12:51:06;;;;;;;11.75;8.05;;;;;;;9.88;90.75;101536.45;2836552;82;21070;-71
2021/12/15 13:03:12;;;;;;;9.33;7.40;;;;;;;9.94;90.66;101533.45;2836882;84;21026;-71
2021/12/15 13:07:14;;;;;;;10.28;8.38;;;;;;;9.95;90.89;101535.16;2836560;84;21112;-70
2021/12/15 13:11:34;;;;;;;8.60;7.75;;;;;;;10.02;90.50;101534.30;2836693;84;21018;-71
2021/12/15 13:15:33;;;;;;;17.05;9.03;;;;;;;9.93;90.95;101533.07;2835769;84;21057;-72
2021/12/15 13:19:42;;;;;;;11.22;8.98;;;;;;;9.94;91.35;101528.59;2837013;84;21049;-71
2021/12/15 13:23:57;;;;;;;13.03;9.08;;;;;;;9.95;91.74;101522.33;2836740;84;20986;-71
2021/12/15 13:32:30;;;;;;;14.07;9.03;;;;;;;10.05;91.19;101530.61;2836763;84;21014;-71
2021/12/15 13:36:43;;;;;;;13.00;9.63;;;;;;;10.04;91.49;101532.89;2836632;84;21026;-70
2021/12/15 13:45:31;;;;;;;10.95;8.08;;;;;;;10.06;91.31;101529.20;2768123;82;21038;-70
2021/12/15 13:49:50;;;;;;;12.15;8.00;;;;;;;10.03;90.33;101525.41;2835032;84;21524;-71
2021/12/15 13:53:52;;;;;;;8.95;8.05;;;;;;;9.93;90.35;101536.19;2835948;84;21081;-71
2021/12/15 13:58:15;;;;;;;9.73;8.63;;;;;;;9.96;90.61;101543.52;2836890;84;21045;-72
2021/12/15 14:02:21;;;;;;;14.68;8.88;;;;;;;9.93;90.95;101541.50;2837032;84;20971;-70
2021/12/15 14:06:25;;;;;;;14.28;10.25;;;;;;;9.83;90.97;101546.50;2836775;84;21051;-70
2021/12/15 14:10:35;;;;;;;9.70;8.30;;;;;;;9.98;90.94;101548.27;2837639;84;21086;-69
2021/12/15 14:14:43;;;;;;;11.90;8.53;;;;;;;9.98;90.61;101546.94;2835371;82;21464;-69
2021/12/15 14:18:45;;;;;;;14.63;10.25;;;;;;;10.09;89.99;101542.30;2782281;85;21031;-69
2021/12/15 14:22:50;;;;;;;11.43;7.92;;;;;;;10.15;89.53;101548.58;2832779;84;20995;-69
2021/12/15 14:26:53;;;;;;;12.50;9.45;;;;;;;10.21;88.84;101550.47;2831657;84;21031;-71
2021/12/15 14:31:05;;;;;;;8.58;7.50;;;;;;;10.24;88.59;101545.84;2832629;84;21015;-71
2021/12/15 14:35:19;;;;;;;17.12;8.08;;;;;;;10.29;88.57;101540.25;2833434;84;21007;-74
2021/12/15 14:39:25;;;;;;;11.50;7.65;;;;;;;10.18;88.53;101540.03;2833127;84;21393;-71
2021/12/15 14:43:27;;;;;;;;;;;;;;;10.14;88.95;101554.84;2836272;84;21066;-69
2021/12/15 14:47:32;;;;;;;9.13;6.08;;;;;;;10.04;88.94;101573.63;2783524;85;20132;-68
2021/12/15 14:51:35;;;;;;;10.15;8.55;;;;;;;9.92;89.32;101578.33;2782298;85;21059;-69
2021/12/15 14:55:36;;;;;;;8.93;6.17;;;;;;;9.93;89.50;101577.38;2783008;85;21073;-71
2021/12/15 14:59:52;;;;;;;10.90;7.80;;;;;;;9.91;89.70;101578.79;2783260;85;21015;-74
2021/12/15 15:04:03;;;;;;;11.55;8.80;;;;;;;9.89;89.84;101579.36;2832645;84;21007;-70
2021/12/15 15:08:10;;;;;;;13.55;9.18;;;;;;;9.81;90.14;101586.93;2786758;85;21547;-72
2021/12/15 15:12:25;;;;;;;12.73;8.63;;;;;;;9.82;90.33;101588.16;2837123;84;21768;-69
2021/12/15 15:16:33;;;;;;;12.33;7.33;;;;;;;9.90;90.09;101584.21;2837368;84;21063;-74
2021/12/15 15:20:42;;;;;;;12.00;8.65;;;;;;;10.00;89.57;101587.57;2836427;82;21023;-70
2021/12/15 15:24:47;;;;;;;8.53;7.62;;;;;;;10.11;89.37;101591.38;2836807;84;21038;-69
2021/12/15 15:28:51;;;;;;;13.13;8.28;;;;;;;10.17;88.83;101592.37;2836623;84;21043;-69
2021/12/15 15:33:06;;;;;;;14.40;7.92;;;;;;;10.26;88.54;101600.27;2837261;84;21054;-71
2021/12/15 15:37:22;;;;;;;13.10;9.88;;;;;;;10.30;88.21;101601.80;2837143;84;21050;-71
2021/12/15 15:41:32;;;;;;;12.03;7.90;;;;;;;10.33;88.09;101604.76;2832564;84;20981;-72
2021/12/15 15:45:41;;;;;;;11.88;7.15;;;;;;;10.32;87.84;101601.23;2837088;84;20983;-71
2021/12/15 15:49:51;;;;;;;15.63;7.47;;;;;;;10.33;87.88;101589.64;2836670;84;21011;-70
2021/12/15 15:54:00;;;;;;;13.62;9.25;;;;;;;10.31;87.75;101591.54;2836693;84;20995;-69
2021/12/15 15:58:06;;;;;;;13.83;9.65;;;;;;;10.30;87.79;101587.17;2837068;84;21007;-71
2021/12/15 16:02:08;;;;;;;;;;;;;;;10.25;87.79;101591.42;2839383;84;21337;-71
2021/12/15 16:06:14;;;;;;;14.45;10.88;;;;;;;10.28;87.87;101599.70;2785826;85;20377;-72
2021/12/15 16:10:20;;;;;;;18.73;13.10;;;;;;;10.27;87.95;101590.86;2782625;85;21023;-70
2021/12/15 16:14:25;;;;;;;16.17;10.65;;;;;;;10.26;87.87;101594.95;2782804;85;21063;-70
2021/12/15 16:18:34;;;;;;;18.50;12.70;;;;;;;10.27;87.87;101595.34;2832015;84;21035;-72
2021/12/15 16:23:00;;;;;;;20.48;14.10;;;;;;;10.27;87.85;101590.02;2832086;84;20995;-69
2021/12/15 16:26:44;;;;;;;24.57;13.15;;;;;;;10.25;87.80;101589.25;2826300;84;21043;-67
2021/12/15 16:30:51;;;;;;;16.80;12.43;;;;;;;10.19;87.75;101579.83;2832453;84;21035;-69
2021/12/15 16:34:53;;;;;;;16.60;10.93;;;;;;;10.14;87.82;101576.11;2832668;83;21031;-70
2021/12/15 16:38:55;;;;;;;15.90;9.58;;;;;;;10.09;87.79;101582.19;2831736;84;21075;-80
2021/12/15 16:43:14;;;;;;;13.98;10.85;;;;;;;10.08;88.02;101588.45;2832977;84;21067;-66
2021/12/15 16:47:20;;;;;;;18.98;12.80;;;;;;;10.07;88.46;101594.72;2832612;84;21038;-71
2021/12/15 16:51:24;;;;;;;14.30;9.85;;;;;;;10.07;88.67;101598.70;2832438;83;21376;-71
2021/12/15 16:55:27;;;;;;;15.72;10.95;;;;;;;10.06;88.99;101601.44;2832866;84;21489;-71
2021/12/15 17:13:00;;;;;;;13.10;10.65;;;;;;;10.58;87.79;101609.46;3090857;74;23188;-67
2021/12/15 17:16:57;;;;;;;14.00;9.70;;;;;;;10.49;87.68;101612.20;3055591;77;20983;-66
2021/12/15 17:21:05;;;;;;;17.10;11.22;;;;;;;10.45;87.97;101609.84;3058669;77;21364;-66
2021/12/15 17:25:12;;;;;;;15.75;10.50;;;;;;;10.32;88.53;101608.33;3052473;77;21018;-67
2021/12/15 17:29:16;;;;;;;11.97;10.20;;;;;;;10.20;89.21;101602.81;3059282;77;21007;-66
2021/12/15 17:33:23;;;;;;;16.80;9.40;;;;;;;10.14;89.60;101605.36;3080251;76;20960;-67
2021/12/15 18:01:05;;;;;;;12.73;9.78;;;;;;;10.80;87.00;101601.48;2956921;79;22980;-65
2021/12/15 18:05:13;;;;;;;10.50;9.05;;;;;;;10.61;87.31;101599.98;2911215;81;21022;-65
2021/12/15 18:09:17;;;;;;;13.50;9.35;;;;;;;10.49;87.96;101610.03;2923283;81;21023;-65
2021/12/15 18:13:24;;;;;;;12.23;8.73;;;;;;;10.36;88.60;101617.87;2937571;81;21034;-65
2021/12/15 18:17:29;;;;;;;14.33;9.03;;;;;;;10.09;89.86;101619.86;2937626;80;21017;-66
2021/12/15 18:21:35;;;;;;;11.38;8.78;;;;;;;10.03;90.65;101626.87;2937685;80;21026;-67
2021/12/15 18:25:39;;;;;;;12.65;10.05;;;;;;;9.94;91.55;101632.25;2937691;80;21042;-70
2021/12/15 18:29:47;;;;;;;14.90;12.82;;;;;;;9.99;91.85;101634.16;2918875;81;21636;-67
2021/12/15 18:33:50;;;;;;;12.90;11.53;;;;;;;10.00;92.34;101621.25;2937728;81;21061;-66
2021/12/15 18:37:55;;;;;;;15.10;10.88;;;;;;;10.01;92.67;101609.67;2937593;81;21070;-67
2021/12/15 18:41:58;;;;;;;16.32;12.63;;;;;;;9.99;92.53;101612.90;2937898;79;21015;-67
2021/12/15 18:46:00;;;;;;;18.70;11.73;;;;;;;9.87;92.88;101614.47;2937970;81;21034;-67
2021/12/15 18:50:08;;;;;;;14.87;11.33;;;;;;;9.80;93.09;101614.45;2937841;80;21022;-67
2021/12/15 18:54:12;;;;;;;14.80;12.88;;;;;;;9.76;93.52;101606.28;2937364;80;21841;-67
2021/12/15 18:58:14;;;;;;;18.50;14.40;;;;;;;9.71;93.55;101611.84;2937910;80;21034;-67
2021/12/15 19:02:25;;;;;;;15.88;12.18;;;;;;;9.66;94.04;101620.08;2937108;81;21046;-67
2021/12/15 19:06:26;;;;;;;16.17;13.05;;;;;;;9.69;94.01;101623.04;2937143;81;21062;-67
2021/12/15 19:10:28;;;;;;;17.45;11.95;;;;;;;9.69;94.03;101620.37;2937257;80;20999;-67
2021/12/15 19:14:32;;;;;;;17.60;12.15;;;;;;;9.64;94.29;101616.65;2937039;81;21042;-67
2021/12/15 19:18:37;;;;;;;18.30;13.30;;;;;;;9.61;94.62;101615.95;2937164;81;20995;-67
2021/12/15 19:22:41;;;;;;;23.73;16.05;;;;;;;9.63;94.76;101619.38;2936957;80;21002;-67
2021/12/15 19:26:43;;;;;;;17.37;12.88;;;;;;;9.56;95.28;101605.12;2936874;81;20955;-67
2021/12/15 19:30:50;;;;;;;15.60;11.93;;;;;;;9.58;95.49;101607.70;2936894;81;21058;-67
2021/12/15 19:34:53;;;;;;;17.02;12.45;;;;;;;9.62;95.39;101611.89;2935934;80;21050;-67
2021/12/15 19:38:59;;;;;;;13.25;9.33;;;;;;;9.67;95.24;101623.60;2936832;80;20971;-67
2021/12/15 19:43:00;;;;;;;15.93;11.45;;;;;;;9.67;95.15;101622.27;2937100;81;21023;-68
2021/12/15 19:47:08;;;;;;;15.35;12.55;;;;;;;9.72;94.85;101632.16;2937089;81;20991;-67
2021/12/15 19:51:10;;;;;;;14.73;11.05;;;;;;;9.70;94.93;101639.36;2936741;81;20987;-67
2021/12/15 19:55:16;;;;;;;11.28;9.50;;;;;;;9.68;95.07;101639.92;2936873;81;21022;-67
2021/12/15 19:59:20;;;;;;;22.67;13.15;;;;;;;9.62;95.18;101650.87;2954527;80;21369;-67
2021/12/15 20:03:24;;;;;;;15.78;12.10;;;;;;;9.66;95.05;101651.95;2974459;80;21006;-67
2021/12/15 20:07:27;;;;;;;22.65;14.28;;;;;;;9.68;94.92;101651.88;2974321;80;21022;-67
2021/12/15 20:11:31;;;;;;;19.40;15.30;;;;;;;9.73;94.54;101643.17;2974591;79;21032;-67
2021/12/15 20:15:37;;;;;;;19.85;15.65;;;;;;;9.77;94.08;101647.36;2974601;80;21049;-67
2021/12/15 20:19:43;;;;;;;20.50;13.98;;;;;;;9.83;93.66;101651.02;2974285;80;21125;-67
2021/12/15 20:23:47;;;;;;;21.05;12.58;;;;;;;9.83;93.50;101657.66;2949978;80;21010;-67
2021/12/15 20:27:51;;;;;;;16.80;11.12;;;;;;;9.82;93.27;101653.75;2974477;80;21049;-67
2021/12/15 20:31:53;;;;;;;18.62;12.85;;;;;;;9.89;92.93;101646.29;2974635;79;20995;-67
2021/12/15 20:35:55;;;;;;;13.90;11.85;;;;;;;9.97;92.62;101644.03;2974830;80;21454;-69
2021/12/15 20:39:57;;;;;;;13.98;11.53;;;;;;;9.99;92.36;101647.45;2974866;80;21061;-69
2021/12/15 20:44:03;;;;;;;13.38;10.28;;;;;;;10.03;92.03;101656.99;2974854;80;21561;-70
2021/12/15 20:48:07;;;;;;;13.40;9.98;;;;;;;10.05;91.52;101651.11;2954884;80;21090;-69
2021/12/15 20:52:12;;;;;;;13.35;9.33;;;;;;;10.09;91.14;101658.41;2922645;81;21022;-69
2021/12/15 20:56:15;;;;;;;10.65;9.35;;;;;;;10.10;91.10;101647.70;2922517;81;21105;-69
2021/12/15 21:00:22;;;;;;;12.55;10.43;;;;;;;10.04;91.12;101649.86;2922275;81;21039;-69